Richland, Oregon
Current Conditions -  °F | °C
As of 1:53 PM on Tuesday 25 Nov 2014 (Local Time) from KBKE Reporting Station
Scattered Clouds Scattered Clouds  
Wind Chill: 41°   Ceiling: Unl
Heat Index: 45°   Visibility: 10mi
Dew Point: 41°   Wind: 7mph
Humidity: 86%   Direction: 160°SSE
Pressure: 30.2"   Gusts: NA
Location:  44.77°N, 117.17°W
Report Text: KBKE 252153Z AUTO 16006KT 10SM SCT065 07/05 A3020 RMK AO2 SLP241 T00720050
Loading
Personal Weather Stations






























Interactive Weather Map New forecast layout! Learn more

10-Day Weather Forecast

Advertisements
Track Severe Weather on mobile